createdAt,value
2023-01-03T00:00:02.081Z,9.65
2023-01-03T00:05:04.117Z,9.69
2023-01-03T00:10:09.101Z,9.70
2023-01-03T00:15:11.260Z,9.62
2023-01-03T00:20:13.265Z,9.57
2023-01-03T00:25:15.394Z,9.44
2023-01-03T00:30:17.136Z,9.40
2023-01-03T00:35:18.765Z,9.25
2023-01-03T00:40:20.404Z,9.17
2023-01-03T00:45:25.445Z,9.05
2023-01-03T00:50:27.518Z,8.97
2023-01-03T00:55:29.169Z,8.91
2023-01-03T01:00:30.827Z,8.91
2023-01-03T01:05:32.523Z,8.82
2023-01-03T01:10:34.301Z,8.74
2023-01-03T01:15:36.000Z,8.62
2023-01-03T01:20:39.764Z,8.78
2023-01-03T01:25:41.398Z,8.69
2023-01-03T01:30:43.108Z,8.60
2023-01-03T01:35:44.806Z,8.59
2023-01-03T01:40:46.785Z,8.64
2023-01-03T01:45:48.655Z,8.68
2023-01-03T01:50:54.786Z,8.56
2023-01-03T01:56:03.546Z,8.65
2023-01-03T02:01:09.149Z,8.74
2023-01-03T02:06:14.326Z,8.64
2023-01-03T02:11:47.996Z,8.61
2023-01-03T02:17:11.849Z,8.50
2023-01-03T02:22:47.511Z,8.38
2023-01-03T02:27:58.203Z,8.42
2023-01-03T02:33:20.867Z,8.28
2023-01-03T02:38:31.527Z,8.06
2023-01-03T02:43:42.629Z,8.19
2023-01-03T02:48:55.390Z,8.02
2023-01-03T02:53:59.731Z,8.12
2023-01-03T02:59:08.704Z,8.26
2023-01-03T03:04:12.220Z,8.29
2023-01-03T03:09:13.953Z,8.26
2023-01-03T03:14:28.771Z,8.34
2023-01-03T03:19:52.088Z,8.48
2023-01-03T03:24:57.082Z,8.36
2023-01-03T03:30:02.740Z,8.21
2023-01-03T03:35:09.241Z,8.18
2023-01-03T03:40:30.125Z,8.11
2023-01-03T03:45:41.651Z,8.26
2023-01-03T03:50:54.006Z,8.27
2023-01-03T03:56:07.411Z,8.11
2023-01-03T04:01:12.477Z,8.25
2023-01-03T04:06:31.005Z,8.22
2023-01-03T04:11:32.750Z,8.22
2023-01-03T04:16:34.509Z,8.29
2023-01-03T04:21:36.755Z,8.38
2023-01-03T04:26:38.462Z,8.29
2023-01-03T04:31:40.616Z,8.33
2023-01-03T04:36:42.251Z,8.30
2023-01-03T04:41:43.879Z,8.32
2023-01-03T04:46:52.301Z,8.35
2023-01-03T04:51:54.563Z,8.41
2023-01-03T04:56:56.206Z,8.43
2023-01-03T05:01:58.050Z,8.52
2023-01-03T05:06:59.877Z,8.45
2023-01-03T05:12:01.582Z,8.56
2023-01-03T05:17:03.295Z,8.57
2023-01-03T05:22:23.708Z,8.51
2023-01-03T05:27:25.376Z,8.40
2023-01-03T05:32:29.105Z,8.41
2023-01-03T05:37:30.705Z,8.38
2023-01-03T05:42:32.395Z,8.46
2023-01-03T05:47:34.017Z,8.41
2023-01-03T05:52:35.775Z,8.43
2023-01-03T05:57:37.561Z,8.42
2023-01-03T06:02:39.402Z,8.31
2023-01-03T06:07:41.060Z,8.43
2023-01-03T06:12:42.703Z,8.46
2023-01-03T06:17:58.227Z,8.45
2023-01-03T06:23:00.026Z,8.39
2023-01-03T06:28:01.782Z,8.34
2023-01-03T06:33:03.406Z,8.31
2023-01-03T06:38:05.114Z,8.24
2023-01-03T06:43:06.812Z,8.31
2023-01-03T06:48:28.486Z,8.29
2023-01-03T06:53:36.671Z,8.43
2023-01-03T06:58:38.595Z,8.26
2023-01-03T07:03:40.541Z,8.32
2023-01-03T07:08:47.862Z,8.31
2023-01-03T07:13:59.824Z,8.31
2023-01-03T07:19:02.347Z,8.18
2023-01-03T07:24:05.800Z,8.15
2023-01-03T07:29:09.555Z,8.01
2023-01-03T07:34:11.229Z,8.10
2023-01-03T07:39:12.833Z,7.93
2023-01-03T07:44:14.443Z,7.99
2023-01-03T07:49:16.104Z,7.86
2023-01-03T07:54:17.759Z,7.77
2023-01-03T07:59:19.518Z,7.58
2023-01-03T08:04:21.239Z,7.56
2023-01-03T08:09:41.455Z,7.55
2023-01-03T08:14:43.077Z,7.49
2023-01-03T08:19:45.948Z,7.65
2023-01-03T08:24:47.866Z,7.69
2023-01-03T08:29:49.579Z,7.61
2023-01-03T08:34:51.504Z,7.72
2023-01-03T08:40:01.528Z,7.70
2023-01-03T08:45:09.277Z,7.69
2023-01-03T08:50:12.741Z,7.72
2023-01-03T08:55:14.595Z,7.80
2023-01-03T09:00:16.439Z,7.96
2023-01-03T09:05:18.219Z,7.81
2023-01-03T09:10:20.027Z,7.90
2023-01-03T09:15:22.669Z,8.03
2023-01-03T09:20:24.384Z,8.01
2023-01-03T09:25:25.949Z,8.00
2023-01-03T09:30:27.638Z,8.00
2023-01-03T09:35:29.294Z,8.19
2023-01-03T09:40:36.196Z,8.20
2023-01-03T09:45:39.824Z,8.16
2023-01-03T09:51:14.973Z,8.24
2023-01-03T09:56:25.080Z,8.21
2023-01-03T10:01:51.747Z,8.27
2023-01-03T10:07:23.603Z,8.00
2023-01-03T10:12:43.793Z,8.27
2023-01-03T10:18:17.653Z,8.35
2023-01-03T10:23:19.550Z,8.35
2023-01-03T10:28:27.411Z,8.51
2023-01-03T10:33:42.685Z,8.47
2023-01-03T10:38:51.571Z,8.63
2023-01-03T10:44:00.154Z,8.74
2023-01-03T10:49:28.854Z,8.76
2023-01-03T10:54:46.533Z,8.71
2023-01-03T10:59:51.249Z,8.89
2023-01-03T11:05:13.288Z,9.04
2023-01-03T11:10:19.077Z,9.22
2023-01-03T11:15:38.273Z,9.39
2023-01-03T11:21:01.647Z,9.81
2023-01-03T11:26:33.780Z,9.57
2023-01-03T11:31:51.258Z,10.30
2023-01-03T11:37:00.596Z,10.39
2023-01-03T11:42:25.826Z,10.71
2023-01-03T11:47:27.355Z,11.49
2023-01-03T11:52:29.520Z,10.75
2023-01-03T11:57:46.915Z,10.30
2023-01-03T12:03:26.281Z,9.72
2023-01-03T12:09:13.075Z,9.42
2023-01-03T12:14:24.086Z,9.16
2023-01-03T12:19:28.627Z,9.61
2023-01-03T12:24:42.843Z,9.35
2023-01-03T12:29:49.136Z,9.41
2023-01-03T12:35:00.802Z,9.08
2023-01-03T12:40:14.756Z,9.07
2023-01-03T12:45:44.918Z,9.03
2023-01-03T12:50:52.087Z,9.35
2023-01-03T12:55:53.534Z,9.40
2023-01-03T13:01:05.041Z,9.62
2023-01-03T13:06:13.959Z,9.64
2023-01-03T13:11:28.925Z,9.34
2023-01-03T13:16:36.627Z,9.15
2023-01-03T13:21:53.430Z,9.09
2023-01-03T13:27:20.465Z,8.84
2023-01-03T13:32:22.035Z,9.04
2023-01-03T13:37:46.396Z,9.07
2023-01-03T13:42:49.359Z,9.15
2023-01-03T13:47:53.932Z,8.90
2023-01-03T13:53:04.045Z,9.01
2023-01-03T13:58:24.227Z,8.88
2023-01-03T14:03:59.938Z,8.69
2023-01-03T14:09:24.381Z,8.75
2023-01-03T14:14:30.755Z,8.80
2023-01-03T14:19:35.724Z,8.69
2023-01-03T14:24:51.714Z,8.74
2023-01-03T14:29:55.394Z,8.59
2023-01-03T14:34:57.089Z,8.52
2023-01-03T14:40:19.711Z,8.50
2023-01-03T14:45:21.517Z,8.34
2023-01-03T14:50:27.826Z,8.44
2023-01-03T14:55:32.867Z,7.95
2023-01-03T15:00:36.407Z,8.05
2023-01-03T15:05:40.688Z,7.89
2023-01-03T15:10:51.325Z,7.77
2023-01-03T15:15:58.899Z,7.59
2023-01-03T15:21:03.206Z,7.62
2023-01-03T15:26:19.620Z,7.84
2023-01-03T15:31:24.150Z,7.62
2023-01-03T15:36:29.059Z,7.73
2023-01-03T15:42:43.051Z,7.65
2023-01-03T15:47:34.636Z,7.51
2023-01-03T15:52:36.609Z,7.47
2023-01-03T15:57:38.683Z,7.44
2023-01-03T16:02:40.717Z,7.34
2023-01-03T16:07:42.549Z,7.12
2023-01-03T16:12:44.434Z,7.08
2023-01-03T16:17:46.471Z,6.88
2023-01-03T16:23:01.675Z,6.83
2023-01-03T16:28:10.189Z,6.78
2023-01-03T16:33:19.981Z,6.67
2023-01-03T16:38:25.418Z,6.57
2023-01-03T16:43:27.500Z,6.61
2023-01-03T16:48:38.089Z,6.69
2023-01-03T16:53:41.046Z,6.58
2023-01-03T16:58:43.415Z,6.69
2023-01-03T17:03:45.300Z,6.89
2023-01-03T17:08:47.229Z,6.74
2023-01-03T17:13:49.253Z,6.60
2023-01-03T17:18:53.411Z,6.45
2023-01-03T17:24:01.873Z,6.39
2023-01-03T17:29:06.012Z,6.60
2023-01-03T17:34:22.619Z,6.44
2023-01-03T17:39:26.053Z,6.28
2023-01-03T17:44:27.701Z,6.39
2023-01-03T17:49:29.385Z,6.26
2023-01-03T17:54:36.239Z,6.08
2023-01-03T17:59:37.922Z,6.10
2023-01-03T18:05:13.272Z,6.14
2023-01-03T18:10:01.625Z,6.07
2023-01-03T18:15:03.736Z,6.20
2023-01-03T18:20:06.503Z,6.16
2023-01-03T18:25:23.560Z,6.26
2023-01-03T18:30:25.198Z,6.30
2023-01-03T18:35:33.897Z,6.30
2023-01-03T18:40:39.574Z,6.26
2023-01-03T18:45:42.012Z,6.19
2023-01-03T18:50:45.583Z,6.10
2023-01-03T18:55:48.513Z,6.09
2023-01-03T19:00:50.199Z,6.02
2023-01-03T19:05:55.201Z,5.92
2023-01-03T19:11:06.124Z,5.79
2023-01-03T19:16:07.952Z,5.79
2023-01-03T19:21:13.187Z,5.76
2023-01-03T19:26:29.029Z,5.80
2023-01-03T19:31:42.579Z,5.67
2023-01-03T19:36:45.376Z,5.59
2023-01-03T19:42:16.734Z,5.48
2023-01-03T19:47:20.593Z,5.62
2023-01-03T19:52:22.386Z,5.69
2023-01-03T19:57:30.182Z,5.79
2023-01-03T20:02:40.944Z,5.76
2023-01-03T20:07:43.857Z,5.86
2023-01-03T20:12:46.732Z,5.99
2023-01-03T20:17:48.601Z,6.06
2023-01-03T20:23:06.327Z,6.12
2023-01-03T20:28:16.884Z,5.99
2023-01-03T20:33:18.555Z,5.86
2023-01-03T20:38:27.372Z,5.78
2023-01-03T20:43:29.292Z,5.74
2023-01-03T20:48:31.078Z,5.90
2023-01-03T20:53:32.723Z,6.30
2023-01-03T20:58:34.370Z,6.41
2023-01-03T21:03:37.966Z,6.29
2023-01-03T21:08:54.661Z,6.19
2023-01-03T21:13:58.477Z,6.37
2023-01-03T21:19:16.238Z,6.42
2023-01-03T21:24:20.216Z,6.42
2023-01-03T21:29:22.116Z,6.63
2023-01-03T21:34:23.863Z,6.56
2023-01-03T21:39:25.720Z,6.46
2023-01-03T21:44:27.430Z,6.39
2023-01-03T21:49:29.267Z,6.41
2023-01-03T21:54:30.897Z,6.14
2023-01-03T21:59:32.645Z,5.91
2023-01-03T22:04:34.645Z,5.67
2023-01-03T22:09:55.011Z,5.63
2023-01-03T22:14:56.827Z,5.75
2023-01-03T22:19:58.497Z,5.78
2023-01-03T22:25:00.129Z,5.79
2023-01-03T22:30:03.188Z,5.91
2023-01-03T22:35:05.109Z,5.90
2023-01-03T22:40:08.969Z,5.93
2023-01-03T22:45:10.915Z,6.10
2023-01-03T22:50:12.654Z,6.03
2023-01-03T22:55:14.336Z,5.95
2023-01-03T23:00:16.187Z,5.95
2023-01-03T23:05:18.066Z,5.72
2023-01-03T23:10:19.762Z,5.62
2023-01-03T23:15:21.529Z,5.29
2023-01-03T23:20:29.923Z,4.98
2023-01-03T23:25:33.324Z,4.96
2023-01-03T23:30:36.034Z,4.97
2023-01-03T23:35:39.034Z,5.05
2023-01-03T23:40:42.017Z,4.89
2023-01-03T23:45:43.747Z,5.10
2023-01-03T23:50:45.439Z,4.96
2023-01-03T23:55:47.226Z,5.25
